sensor_id;sensor_type;location;lat;lon;timestamp;pressure;altitude;pressure_sealevel;temperature;humidity
5812;BME280;2932;52.400;9.558;2023-02-12T00:01:32;102970.81;;;10.77;83.10
5812;BME280;2932;52.400;9.558;2023-02-12T00:03:59;102963.78;;;10.84;82.75
5812;BME280;2932;52.400;9.558;2023-02-12T00:06:24;102963.81;;;10.45;84.26
5812;BME280;2932;52.400;9.558;2023-02-12T00:08:51;102966.13;;;10.72;84.64
5812;BME280;2932;52.400;9.558;2023-02-12T00:11:20;102961.78;;;10.61;84.58
5812;BME280;2932;52.400;9.558;2023-02-12T00:13:46;102973.84;;;10.75;83.99
5812;BME280;2932;52.400;9.558;2023-02-12T00:16:14;102962.88;;;10.26;85.44
5812;BME280;2932;52.400;9.558;2023-02-12T00:18:40;102971.66;;;10.38;85.71
5812;BME280;2932;52.400;9.558;2023-02-12T00:21:06;102977.25;;;10.28;86.13
5812;BME280;2932;52.400;9.558;2023-02-12T00:23:36;102985.31;;;10.58;85.73
5812;BME280;2932;52.400;9.558;2023-02-12T00:26:09;102982.03;;;10.56;84.72
5812;BME280;2932;52.400;9.558;2023-02-12T00:28:35;102985.63;;;10.57;84.77
5812;BME280;2932;52.400;9.558;2023-02-12T00:31:12;102994.53;;;10.83;84.46
5812;BME280;2932;52.400;9.558;2023-02-12T00:33:38;102988.06;;;10.63;84.38
5812;BME280;2932;52.400;9.558;2023-02-12T00:36:04;102980.84;;;10.28;85.46
5812;BME280;2932;52.400;9.558;2023-02-12T00:38:29;102993.31;;;10.65;84.92
5812;BME280;2932;52.400;9.558;2023-02-12T00:40:55;102991.16;;;10.57;85.06
5812;BME280;2932;52.400;9.558;2023-02-12T00:43:20;102992.41;;;10.75;84.16
5812;BME280;2932;52.400;9.558;2023-02-12T00:45:46;102994.22;;;10.55;84.70
5812;BME280;2932;52.400;9.558;2023-02-12T00:48:12;102990.41;;;10.41;85.30
5812;BME280;2932;52.400;9.558;2023-02-12T00:50:37;102996.13;;;10.60;84.66
5812;BME280;2932;52.400;9.558;2023-02-12T00:53:05;102994.44;;;10.64;84.30
5812;BME280;2932;52.400;9.558;2023-02-12T00:55:30;102996.59;;;10.72;84.79
5812;BME280;2932;52.400;9.558;2023-02-12T00:57:57;103001.53;;;10.75;84.65
5812;BME280;2932;52.400;9.558;2023-02-12T01:00:22;103008.59;;;10.91;83.95
5812;BME280;2932;52.400;9.558;2023-02-12T01:02:48;103005.41;;;10.79;84.17
5812;BME280;2932;52.400;9.558;2023-02-12T01:05:13;103001.34;;;10.66;84.57
5812;BME280;2932;52.400;9.558;2023-02-12T01:07:38;103005.91;;;10.81;84.32
5812;BME280;2932;52.400;9.558;2023-02-12T01:10:06;103004.38;;;10.65;84.41
5812;BME280;2932;52.400;9.558;2023-02-12T01:12:32;103006.66;;;10.92;83.97
5812;BME280;2932;52.400;9.558;2023-02-12T01:14:57;103014.47;;;10.85;84.17
5812;BME280;2932;52.400;9.558;2023-02-12T01:17:23;103010.81;;;10.89;84.30
5812;BME280;2932;52.400;9.558;2023-02-12T01:19:48;103012.94;;;10.68;84.20
5812;BME280;2932;52.400;9.558;2023-02-12T01:22:13;103010.81;;;10.55;84.86
5812;BME280;2932;52.400;9.558;2023-02-12T01:24:39;103016.88;;;10.57;85.53
5812;BME280;2932;52.400;9.558;2023-02-12T01:27:04;103014.75;;;10.83;84.72
5812;BME280;2932;52.400;9.558;2023-02-12T01:29:29;103010.41;;;10.77;84.71
5812;BME280;2932;52.400;9.558;2023-02-12T01:31:55;103018.88;;;10.86;84.29
5812;BME280;2932;52.400;9.558;2023-02-12T01:34:20;103017.75;;;10.53;84.79
5812;BME280;2932;52.400;9.558;2023-02-12T01:36:45;103010.81;;;10.89;84.60
5812;BME280;2932;52.400;9.558;2023-02-12T01:39:11;103014.75;;;10.83;83.79
5812;BME280;2932;52.400;9.558;2023-02-12T01:41:40;103006.41;;;10.49;84.49
5812;BME280;2932;52.400;9.558;2023-02-12T01:44:23;103006.28;;;10.69;84.36
5812;BME280;2932;52.400;9.558;2023-02-12T01:46:54;103011.00;;;10.69;84.37
5812;BME280;2932;52.400;9.558;2023-02-12T01:49:30;103008.47;;;10.73;84.12
5812;BME280;2932;52.400;9.558;2023-02-12T01:52:05;103014.09;;;10.62;84.01
5812;BME280;2932;52.400;9.558;2023-02-12T01:54:33;103006.84;;;10.72;83.94
5812;BME280;2932;52.400;9.558;2023-02-12T01:57:00;103004.44;;;10.55;83.73
5812;BME280;2932;52.400;9.558;2023-02-12T01:59:26;103000.03;;;10.54;83.88
5812;BME280;2932;52.400;9.558;2023-02-12T02:01:53;103011.88;;;10.64;83.76
5812;BME280;2932;52.400;9.558;2023-02-12T02:04:22;103013.78;;;10.69;83.25
5812;BME280;2932;52.400;9.558;2023-02-12T02:06:55;103007.19;;;10.60;83.36
5812;BME280;2932;52.400;9.558;2023-02-12T02:09:21;103008.63;;;10.52;83.73
5812;BME280;2932;52.400;9.558;2023-02-12T02:11:46;103019.75;;;10.81;83.29
5812;BME280;2932;52.400;9.558;2023-02-12T02:14:31;103011.88;;;10.64;83.46
5812;BME280;2932;52.400;9.558;2023-02-12T02:17:12;103019.75;;;10.81;82.97
5812;BME280;2932;52.400;9.558;2023-02-12T02:22:42;103009.56;;;10.38;84.00
5812;BME280;2932;52.400;9.558;2023-02-12T02:25:35;103008.69;;;10.42;84.54
5812;BME280;2932;52.400;9.558;2023-02-12T02:30:56;103008.91;;;10.51;84.32
5812;BME280;2932;52.400;9.558;2023-02-12T02:36:09;103007.97;;;10.65;84.05
5812;BME280;2932;52.400;9.558;2023-02-12T02:43:41;103009.69;;;10.56;84.71
5812;BME280;2932;52.400;9.558;2023-02-12T02:46:31;103005.06;;;10.47;85.06
5812;BME280;2932;52.400;9.558;2023-02-12T02:49:07;102998.97;;;10.45;84.71
5812;BME280;2932;52.400;9.558;2023-02-12T02:51:40;103007.50;;;10.53;85.08
5812;BME280;2932;52.400;9.558;2023-02-12T02:54:19;103009.75;;;10.46;85.16
5812;BME280;2932;52.400;9.558;2023-02-12T02:56:48;103008.81;;;10.66;84.29
5812;BME280;2932;52.400;9.558;2023-02-12T02:59:19;103001.75;;;10.45;84.84
5812;BME280;2932;52.400;9.558;2023-02-12T03:01:53;103008.06;;;10.50;84.82
5812;BME280;2932;52.400;9.558;2023-02-12T03:04:35;103001.25;;;10.38;84.99
5812;BME280;2932;52.400;9.558;2023-02-12T03:07:10;103014.34;;;10.66;84.76
5812;BME280;2932;52.400;9.558;2023-02-12T03:09:41;103017.88;;;10.77;84.31
5812;BME280;2932;52.400;9.558;2023-02-12T03:12:17;103013.59;;;10.89;83.94
5812;BME280;2932;52.400;9.558;2023-02-12T03:14:51;103014.13;;;10.57;84.52
5812;BME280;2932;52.400;9.558;2023-02-12T03:17:29;103011.69;;;10.46;84.95
5812;BME280;2932;52.400;9.558;2023-02-12T03:20:00;103018.84;;;10.57;84.69
5812;BME280;2932;52.400;9.558;2023-02-12T03:22:30;103022.16;;;10.54;84.38
5812;BME280;2932;52.400;9.558;2023-02-12T03:25:13;103019.34;;;10.64;84.44
5812;BME280;2932;52.400;9.558;2023-02-12T03:27:55;103021.22;;;10.34;85.13
5812;BME280;2932;52.400;9.558;2023-02-12T03:30:24;103020.16;;;10.64;84.62
5812;BME280;2932;52.400;9.558;2023-02-12T03:33:06;103027.09;;;10.62;84.48
5812;BME280;2932;52.400;9.558;2023-02-12T03:35:41;103023.84;;;10.50;84.56
5812;BME280;2932;52.400;9.558;2023-02-12T03:38:38;103025.97;;;10.68;84.54
5812;BME280;2932;52.400;9.558;2023-02-12T03:41:27;103028.34;;;10.41;84.52
5812;BME280;2932;52.400;9.558;2023-02-12T03:44:05;103025.66;;;10.30;84.79
5812;BME280;2932;52.400;9.558;2023-02-12T03:47:08;103037.06;;;10.63;84.26
5812;BME280;2932;52.400;9.558;2023-02-12T03:52:11;103033.56;;;10.47;83.78
5812;BME280;2932;52.400;9.558;2023-02-12T03:54:36;103045.91;;;10.65;83.83
5812;BME280;2932;52.400;9.558;2023-02-12T03:57:17;103049.50;;;10.65;83.62
5812;BME280;2932;52.400;9.558;2023-02-12T03:59:45;103057.94;;;10.84;83.24
5812;BME280;2932;52.400;9.558;2023-02-12T04:02:11;103055.03;;;11.05;82.88
5812;BME280;2932;52.400;9.558;2023-02-12T04:04:38;103061.56;;;11.19;81.83
5812;BME280;2932;52.400;9.558;2023-02-12T04:07:03;103064.25;;;11.24;81.81
5812;BME280;2932;52.400;9.558;2023-02-12T04:09:29;103068.56;;;11.40;81.31
5812;BME280;2932;52.400;9.558;2023-02-12T04:15:06;103075.31;;;11.29;80.81
5812;BME280;2932;52.400;9.558;2023-02-12T04:20:37;103085.72;;;11.42;80.17
5812;BME280;2932;52.400;9.558;2023-02-12T04:29:04;103092.41;;;11.07;81.23
5812;BME280;2932;52.400;9.558;2023-02-12T04:36:48;103097.41;;;11.05;81.26
5812;BME280;2932;52.400;9.558;2023-02-12T04:39:21;103093.09;;;10.89;81.15
5812;BME280;2932;52.400;9.558;2023-02-12T04:41:47;103092.47;;;10.58;81.55
5812;BME280;2932;52.400;9.558;2023-02-12T04:44:24;103099.28;;;10.76;81.84
5812;BME280;2932;52.400;9.558;2023-02-12T04:46:50;103102.38;;;10.69;82.25
5812;BME280;2932;52.400;9.558;2023-02-12T04:49:18;103092.91;;;10.75;82.02
5812;BME280;2932;52.400;9.558;2023-02-12T04:51:44;103096.25;;;10.72;82.29
5812;BME280;2932;52.400;9.558;2023-02-12T04:54:10;103097.41;;;10.66;82.32
5812;BME280;2932;52.400;9.558;2023-02-12T04:56:36;103088.53;;;10.69;81.89
5812;BME280;2932;52.400;9.558;2023-02-12T04:59:01;103086.94;;;10.53;82.56
5812;BME280;2932;52.400;9.558;2023-02-12T05:01:27;103091.41;;;10.49;82.71
5812;BME280;2932;52.400;9.558;2023-02-12T05:03:52;103088.00;;;10.62;82.64
5812;BME280;2932;52.400;9.558;2023-02-12T05:06:18;103085.03;;;10.48;82.69
5812;BME280;2932;52.400;9.558;2023-02-12T05:08:43;103085.00;;;10.53;82.90
5812;BME280;2932;52.400;9.558;2023-02-12T05:11:10;103092.88;;;10.31;83.40
5812;BME280;2932;52.400;9.558;2023-02-12T05:13:36;103094.72;;;10.51;83.00
5812;BME280;2932;52.400;9.558;2023-02-12T05:16:03;103100.81;;;10.48;83.18
5812;BME280;2932;52.400;9.558;2023-02-12T05:18:29;103099.06;;;10.67;82.78
5812;BME280;2932;52.400;9.558;2023-02-12T05:20:59;103105.13;;;10.69;82.40
5812;BME280;2932;52.400;9.558;2023-02-12T05:23:26;103099.28;;;10.76;82.23
5812;BME280;2932;52.400;9.558;2023-02-12T05:25:52;103098.09;;;11.21;81.23
5812;BME280;2932;52.400;9.558;2023-02-12T05:28:17;103091.47;;;10.83;82.05
5812;BME280;2932;52.400;9.558;2023-02-12T05:30:43;103098.19;;;10.72;82.37
5812;BME280;2932;52.400;9.558;2023-02-12T05:33:08;103090.97;;;10.76;82.35
5812;BME280;2932;52.400;9.558;2023-02-12T05:35:34;103089.38;;;10.64;82.42
5812;BME280;2932;52.400;9.558;2023-02-12T05:37:59;103090.03;;;10.41;82.88
5812;BME280;2932;52.400;9.558;2023-02-12T05:40:25;103098.13;;;10.38;83.65
5812;BME280;2932;52.400;9.558;2023-02-12T05:42:50;103095.91;;;10.40;83.48
5812;BME280;2932;52.400;9.558;2023-02-12T05:45:15;103092.81;;;10.41;83.55
5812;BME280;2932;52.400;9.558;2023-02-12T05:47:41;103092.59;;;10.32;83.84
5812;BME280;2932;52.400;9.558;2023-02-12T05:50:06;103097.06;;;10.28;84.28
5812;BME280;2932;52.400;9.558;2023-02-12T05:52:32;103099.16;;;10.47;83.94
5812;BME280;2932;52.400;9.558;2023-02-12T05:54:58;103099.09;;;10.62;83.55
5812;BME280;2932;52.400;9.558;2023-02-12T05:57:23;103103.50;;;10.63;83.30
5812;BME280;2932;52.400;9.558;2023-02-12T05:59:48;103101.63;;;10.48;83.18
5812;BME280;2932;52.400;9.558;2023-02-12T06:02:14;103098.59;;;10.45;83.59
5812;BME280;2932;52.400;9.558;2023-02-12T06:04:39;103094.19;;;10.44;83.52
5812;BME280;2932;52.400;9.558;2023-02-12T06:07:04;103096.63;;;10.55;83.45
5812;BME280;2932;52.400;9.558;2023-02-12T06:09:31;103100.97;;;10.72;82.89
5812;BME280;2932;52.400;9.558;2023-02-12T06:11:57;103103.59;;;10.92;82.36
5812;BME280;2932;52.400;9.558;2023-02-12T06:14:22;103104.69;;;10.91;82.62
5812;BME280;2932;52.400;9.558;2023-02-12T06:16:50;103101.63;;;10.97;82.57
5812;BME280;2932;52.400;9.558;2023-02-12T06:19:16;103109.13;;;11.26;81.88
5812;BME280;2932;52.400;9.558;2023-02-12T06:21:42;103107.41;;;11.01;82.01
5812;BME280;2932;52.400;9.558;2023-02-12T06:24:10;103112.19;;;11.24;81.45
5812;BME280;2932;52.400;9.558;2023-02-12T06:26:36;103108.97;;;11.17;81.02
5812;BME280;2932;52.400;9.558;2023-02-12T06:29:02;103115.31;;;11.18;80.83
5812;BME280;2932;52.400;9.558;2023-02-12T06:31:29;103112.34;;;11.09;81.22
5812;BME280;2932;52.400;9.558;2023-02-12T06:33:57;103116.94;;;10.80;81.87
5812;BME280;2932;52.400;9.558;2023-02-12T06:36:23;103122.63;;;10.59;83.11
5812;BME280;2932;52.400;9.558;2023-02-12T06:38:49;103121.22;;;10.62;83.26
5812;BME280;2932;52.400;9.558;2023-02-12T06:41:14;103123.38;;;10.75;82.75
5812;BME280;2932;52.400;9.558;2023-02-12T06:43:40;103126.75;;;10.67;83.45
5812;BME280;2932;52.400;9.558;2023-02-12T06:46:07;103126.56;;;10.43;83.74
5812;BME280;2932;52.400;9.558;2023-02-12T06:48:33;103128.78;;;10.46;84.19
5812;BME280;2932;52.400;9.558;2023-02-12T06:51:05;103130.16;;;10.49;84.23
5812;BME280;2932;52.400;9.558;2023-02-12T06:53:32;103125.66;;;10.63;84.32
5812;BME280;2932;52.400;9.558;2023-02-12T06:56:08;103140.41;;;10.92;83.94
5812;BME280;2932;52.400;9.558;2023-02-12T06:58:45;103146.19;;;11.01;83.28
5812;BME280;2932;52.400;9.558;2023-02-12T07:01:16;103149.97;;;11.15;82.56
5812;BME280;2932;52.400;9.558;2023-02-12T07:03:45;103150.72;;;10.82;83.35
5812;BME280;2932;52.400;9.558;2023-02-12T07:06:11;103155.69;;;10.85;83.45
5812;BME280;2932;52.400;9.558;2023-02-12T07:08:37;103159.03;;;10.82;83.19
5812;BME280;2932;52.400;9.558;2023-02-12T07:11:03;103153.88;;;10.65;83.25
5812;BME280;2932;52.400;9.558;2023-02-12T07:13:28;103157.09;;;10.82;83.16
5812;BME280;2932;52.400;9.558;2023-02-12T07:15:53;103162.03;;;10.90;82.89
5812;BME280;2932;52.400;9.558;2023-02-12T07:18:19;103159.59;;;10.84;83.04
5812;BME280;2932;52.400;9.558;2023-02-12T07:20:44;103160.94;;;10.91;82.88
5812;BME280;2932;52.400;9.558;2023-02-12T07:23:11;103164.56;;;10.87;82.73
5812;BME280;2932;52.400;9.558;2023-02-12T07:25:36;103172.16;;;10.66;83.61
5812;BME280;2932;52.400;9.558;2023-02-12T07:28:02;103178.28;;;10.53;83.77
5812;BME280;2932;52.400;9.558;2023-02-12T07:30:27;103171.06;;;10.62;83.89
5812;BME280;2932;52.400;9.558;2023-02-12T07:32:53;103176.06;;;10.60;83.60
5812;BME280;2932;52.400;9.558;2023-02-12T07:35:18;103175.78;;;10.61;84.01
5812;BME280;2932;52.400;9.558;2023-02-12T07:37:43;103174.59;;;10.78;83.26
5812;BME280;2932;52.400;9.558;2023-02-12T07:40:09;103172.22;;;10.51;83.95
5812;BME280;2932;52.400;9.558;2023-02-12T07:42:34;103175.56;;;10.43;84.78
5812;BME280;2932;52.400;9.558;2023-02-12T07:44:59;103170.06;;;10.38;84.66
5812;BME280;2932;52.400;9.558;2023-02-12T07:47:25;103170.03;;;10.43;85.09
5812;BME280;2932;52.400;9.558;2023-02-12T07:49:50;103165.13;;;10.19;85.26
5812;BME280;2932;52.400;9.558;2023-02-12T07:52:15;103172.00;;;10.37;85.66
5812;BME280;2932;52.400;9.558;2023-02-12T07:54:41;103175.28;;;10.44;85.96
5812;BME280;2932;52.400;9.558;2023-02-12T07:57:06;103179.94;;;10.54;85.30
5812;BME280;2932;52.400;9.558;2023-02-12T07:59:31;103179.41;;;10.52;85.63
5812;BME280;2932;52.400;9.558;2023-02-12T08:01:57;103175.09;;;10.05;85.97
5812;BME280;2932;52.400;9.558;2023-02-12T08:04:24;103179.22;;;10.28;86.19
5812;BME280;2932;52.400;9.558;2023-02-12T08:06:51;103179.25;;;10.23;85.96
5812;BME280;2932;52.400;9.558;2023-02-12T08:09:21;103190.78;;;10.45;85.87
5812;BME280;2932;52.400;9.558;2023-02-12T08:11:47;103180.53;;;10.41;85.72
5812;BME280;2932;52.400;9.558;2023-02-12T08:14:14;103177.00;;;10.15;86.22
5812;BME280;2932;52.400;9.558;2023-02-12T08:16:42;103186.41;;;10.19;86.46
5812;BME280;2932;52.400;9.558;2023-02-12T08:19:08;103187.81;;;10.21;86.70
5812;BME280;2932;52.400;9.558;2023-02-12T08:21:34;103187.53;;;10.02;87.26
5812;BME280;2932;52.400;9.558;2023-02-12T08:23:59;103188.06;;;10.15;86.78
5812;BME280;2932;52.400;9.558;2023-02-12T08:26:34;103192.25;;;10.22;86.77
5812;BME280;2932;52.400;9.558;2023-02-12T08:29:02;103198.03;;;10.16;87.00
5812;BME280;2932;52.400;9.558;2023-02-12T08:31:33;103199.47;;;9.88;87.50
5812;BME280;2932;52.400;9.558;2023-02-12T08:34:00;103201.13;;;9.94;88.08
5812;BME280;2932;52.400;9.558;2023-02-12T08:36:34;103200.81;;;10.00;87.98
5812;BME280;2932;52.400;9.558;2023-02-12T08:39:00;103205.84;;;9.88;88.26
5812;BME280;2932;52.400;9.558;2023-02-12T08:41:27;103202.44;;;10.37;87.09
5812;BME280;2932;52.400;9.558;2023-02-12T08:43:55;103198.34;;;10.19;87.49
5812;BME280;2932;52.400;9.558;2023-02-12T08:46:24;103208.00;;;10.32;87.53
5812;BME280;2932;52.400;9.558;2023-02-12T08:48:57;103206.34;;;10.11;87.99
5812;BME280;2932;52.400;9.558;2023-02-12T08:51:25;103204.34;;;10.42;87.43
5812;BME280;2932;52.400;9.558;2023-02-12T08:53:53;103211.59;;;10.17;87.99
5812;BME280;2932;52.400;9.558;2023-02-12T08:56:19;103202.69;;;10.41;87.64
5812;BME280;2932;52.400;9.558;2023-02-12T08:58:45;103211.59;;;10.22;87.38
5812;BME280;2932;52.400;9.558;2023-02-12T09:01:19;103214.66;;;10.21;87.09
5812;BME280;2932;52.400;9.558;2023-02-12T09:03:45;103224.31;;;10.28;87.48
5812;BME280;2932;52.400;9.558;2023-02-12T09:06:12;103222.94;;;10.11;87.55
5812;BME280;2932;52.400;9.558;2023-02-12T09:08:38;103224.88;;;10.05;88.17
5812;BME280;2932;52.400;9.558;2023-02-12T09:11:05;103229.84;;;10.18;87.41
5812;BME280;2932;52.400;9.558;2023-02-12T09:13:31;103230.41;;;10.15;87.47
5812;BME280;2932;52.400;9.558;2023-02-12T09:16:00;103234.28;;;10.04;87.77
5812;BME280;2932;52.400;9.558;2023-02-12T09:18:26;103234.88;;;9.91;87.79
5812;BME280;2932;52.400;9.558;2023-02-12T09:20:51;103239.81;;;10.04;88.04
5812;BME280;2932;52.400;9.558;2023-02-12T09:23:17;103237.88;;;10.25;86.99
5812;BME280;2932;52.400;9.558;2023-02-12T09:25:43;103234.84;;;10.21;86.75
5812;BME280;2932;52.400;9.558;2023-02-12T09:28:09;103241.16;;;10.42;85.93
5812;BME280;2932;52.400;9.558;2023-02-12T09:30:36;103240.56;;;10.55;85.19
5812;BME280;2932;52.400;9.558;2023-02-12T09:33:02;103238.31;;;10.67;85.46
5812;BME280;2932;52.400;9.558;2023-02-12T09:35:28;103244.19;;;10.51;85.22
5812;BME280;2932;52.400;9.558;2023-02-12T09:37:53;103246.44;;;10.13;85.71
5812;BME280;2932;52.400;9.558;2023-02-12T09:43:14;103248.94;;;10.15;86.88
5812;BME280;2932;52.400;9.558;2023-02-12T09:45:52;103251.41;;;10.16;86.37
5812;BME280;2932;52.400;9.558;2023-02-12T09:48:28;103251.44;;;10.11;86.73
5812;BME280;2932;52.400;9.558;2023-02-12T09:50:58;103256.69;;;10.38;86.29
5812;BME280;2932;52.400;9.558;2023-02-12T09:53:27;103253.34;;;10.16;86.55
5812;BME280;2932;52.400;9.558;2023-02-12T09:55:53;103260.25;;;10.44;86.40
5812;BME280;2932;52.400;9.558;2023-02-12T09:58:28;103252.53;;;10.35;85.76
5812;BME280;2932;52.400;9.558;2023-02-12T10:00:55;103251.38;;;10.42;85.93
5812;BME280;2932;52.400;9.558;2023-02-12T10:03:21;103251.94;;;10.49;85.83
5812;BME280;2932;52.400;9.558;2023-02-12T10:05:58;103259.66;;;10.52;85.60
5812;BME280;2932;52.400;9.558;2023-02-12T10:27:24;103266.13;;;11.01;83.78
5812;BME280;2932;52.400;9.558;2023-02-12T10:29:56;103275.41;;;10.77;83.45
5812;BME280;2932;52.400;9.558;2023-02-12T10:32:27;103265.63;;;10.94;83.43
5812;BME280;2932;52.400;9.558;2023-02-12T10:34:55;103264.88;;;10.79;83.19
5812;BME280;2932;52.400;9.558;2023-02-12T10:40:16;103278.41;;;10.80;84.07
5812;BME280;2932;52.400;9.558;2023-02-12T10:42:44;103267.56;;;10.89;83.78
5812;BME280;2932;52.400;9.558;2023-02-12T10:45:19;103265.69;;;10.79;83.86
5812;BME280;2932;52.400;9.558;2023-02-12T10:47:45;103260.63;;;10.91;83.40
5812;BME280;2932;52.400;9.558;2023-02-12T10:50:27;103265.31;;;10.96;83.20
5812;BME280;2932;52.400;9.558;2023-02-12T10:52:58;103262.53;;;11.01;83.70
5812;BME280;2932;52.400;9.558;2023-02-12T10:55:32;103267.00;;;10.92;83.66
5812;BME280;2932;52.400;9.558;2023-02-12T10:57:59;103260.38;;;10.88;83.20
5812;BME280;2932;52.400;9.558;2023-02-12T11:00:32;103261.94;;;11.09;83.27
5812;BME280;2932;52.400;9.558;2023-02-12T11:03:19;103260.63;;;11.46;82.10
5812;BME280;2932;52.400;9.558;2023-02-12T11:05:46;103259.13;;;11.19;81.91
5812;BME280;2932;52.400;9.558;2023-02-12T11:08:28;103250.97;;;10.84;82.43
5812;BME280;2932;52.400;9.558;2023-02-12T11:11:02;103255.13;;;10.81;83.12
5812;BME280;2932;52.400;9.558;2023-02-12T11:13:28;103254.06;;;10.77;83.64
5812;BME280;2932;52.400;9.558;2023-02-12T11:15:54;103255.88;;;11.07;83.68
5812;BME280;2932;52.400;9.558;2023-02-12T11:18:25;103257.31;;;10.94;83.19
5812;BME280;2932;52.400;9.558;2023-02-12T11:21:00;103256.16;;;11.06;83.30
5812;BME280;2932;52.400;9.558;2023-02-12T11:23:34;103258.72;;;11.36;82.42
5812;BME280;2932;52.400;9.558;2023-02-12T11:29:02;103243.34;;;11.15;82.87
5812;BME280;2932;52.400;9.558;2023-02-12T11:31:41;103245.84;;;11.16;82.73
5812;BME280;2932;52.400;9.558;2023-02-12T11:34:11;103244.31;;;11.39;81.59
5812;BME280;2932;52.400;9.558;2023-02-12T11:36:51;103242.13;;;11.31;81.60
5812;BME280;2932;52.400;9.558;2023-02-12T11:39:26;103241.88;;;11.27;81.63
5812;BME280;2932;52.400;9.558;2023-02-12T11:41:57;103242.38;;;11.34;81.66
5812;BME280;2932;52.400;9.558;2023-02-12T11:44:29;103242.09;;;11.36;81.75
5812;BME280;2932;52.400;9.558;2023-02-12T11:46:59;103241.19;;;11.07;81.77
5812;BME280;2932;52.400;9.558;2023-02-12T11:49:31;103230.88;;;11.17;81.68
5812;BME280;2932;52.400;9.558;2023-02-12T11:51:59;103238.09;;;11.13;81.98
5812;BME280;2932;52.400;9.558;2023-02-12T11:54:28;103231.50;;;11.48;81.59
5812;BME280;2932;52.400;9.558;2023-02-12T11:56:54;103235.53;;;11.61;81.13
5812;BME280;2932;52.400;9.558;2023-02-12T11:59:36;103231.06;;;11.26;82.03
5812;BME280;2932;52.400;9.558;2023-02-12T12:02:33;103228.88;;;11.23;81.63
5812;BME280;2932;52.400;9.558;2023-02-12T12:05:14;103226.00;;;11.38;81.56
5812;BME280;2932;52.400;9.558;2023-02-12T12:07:44;103228.13;;;11.56;81.13
5812;BME280;2932;52.400;9.558;2023-02-12T12:12:51;103225.38;;;11.51;81.47
5812;BME280;2932;52.400;9.558;2023-02-12T12:15:41;103223.44;;;11.52;81.32
5812;BME280;2932;52.400;9.558;2023-02-12T12:18:36;103222.41;;;11.72;80.86
5812;BME280;2932;52.400;9.558;2023-02-12T12:24:12;103219.59;;;11.03;83.09
5812;BME280;2932;52.400;9.558;2023-02-12T12:26:41;103211.16;;;10.75;84.13
5812;BME280;2932;52.400;9.558;2023-02-12T12:29:25;103207.72;;;10.93;84.15
5812;BME280;2932;52.400;9.558;2023-02-12T12:31:57;103220.22;;;10.85;84.32
5812;BME280;2932;52.400;9.558;2023-02-12T12:34:26;103216.41;;;10.76;84.54
5812;BME280;2932;52.400;9.558;2023-02-12T12:37:08;103213.72;;;11.15;83.46
5812;BME280;2932;52.400;9.558;2023-02-12T12:53:22;103199.50;;;11.22;82.38
5812;BME280;2932;52.400;9.558;2023-02-12T13:07:19;103187.75;;;11.01;83.45
5812;BME280;2932;52.400;9.558;2023-02-12T13:20:19;103179.66;;;11.49;83.61
5812;BME280;2932;52.400;9.558;2023-02-12T13:28:01;103178.75;;;10.75;85.94
5812;BME280;2932;52.400;9.558;2023-02-12T13:30:45;103176.66;;;11.01;84.94
5812;BME280;2932;52.400;9.558;2023-02-12T13:33:16;103179.75;;;10.94;85.50
5812;BME280;2932;52.400;9.558;2023-02-12T13:35:45;103174.69;;;11.07;85.03
5812;BME280;2932;52.400;9.558;2023-02-12T13:38:26;103180.34;;;11.30;84.55
5812;BME280;2932;52.400;9.558;2023-02-12T13:40:57;103170.41;;;11.24;83.61
5812;BME280;2932;52.400;9.558;2023-02-12T13:46:20;103154.88;;;11.23;83.82
5812;BME280;2932;52.400;9.558;2023-02-12T13:48:56;103165.31;;;11.70;82.90
5812;BME280;2932;52.400;9.558;2023-02-12T13:56:51;103166.88;;;11.19;83.42
5812;BME280;2932;52.400;9.558;2023-02-12T14:05:23;103166.47;;;10.91;84.19
5812;BME280;2932;52.400;9.558;2023-02-12T14:07:54;103166.41;;;11.01;83.12
5812;BME280;2932;52.400;9.558;2023-02-12T14:10:36;103173.16;;;10.80;83.97
5812;BME280;2932;52.400;9.558;2023-02-12T14:13:14;103155.00;;;11.08;83.13
5812;BME280;2932;52.400;9.558;2023-02-12T14:15:44;103160.00;;;11.06;82.56
5812;BME280;2932;52.400;9.558;2023-02-12T14:18:30;103162.25;;;11.38;82.07
5812;BME280;2932;52.400;9.558;2023-02-12T14:23:38;103168.44;;;11.25;81.42
5812;BME280;2932;52.400;9.558;2023-02-12T14:28:54;103174.13;;;11.10;81.64
5812;BME280;2932;52.400;9.558;2023-02-12T14:33:51;103169.16;;;11.07;81.82
5812;BME280;2932;52.400;9.558;2023-02-12T14:38:57;103182.47;;;11.05;81.44
5812;BME280;2932;52.400;9.558;2023-02-12T14:41:31;103184.44;;;10.99;81.66
5812;BME280;2932;52.400;9.558;2023-02-12T14:47:04;103181.66;;;10.99;81.86
5812;BME280;2932;52.400;9.558;2023-02-12T14:49:39;103187.97;;;11.10;81.56
5812;BME280;2932;52.400;9.558;2023-02-12T14:54:57;103185.63;;;10.83;81.31
5812;BME280;2932;52.400;9.558;2023-02-12T14:57:27;103181.53;;;10.70;80.90
5812;BME280;2932;52.400;9.558;2023-02-12T15:00:06;103174.91;;;10.71;80.92
5812;BME280;2932;52.400;9.558;2023-02-12T15:02:51;103179.75;;;10.94;79.94
5812;BME280;2932;52.400;9.558;2023-02-12T15:05:22;103181.09;;;11.02;79.70
5812;BME280;2932;52.400;9.558;2023-02-12T15:07:53;103182.75;;;11.42;78.68
5812;BME280;2932;52.400;9.558;2023-02-12T15:10:31;103177.72;;;11.10;79.20
5812;BME280;2932;52.400;9.558;2023-02-12T15:16:13;103185.50;;;11.03;78.75
5812;BME280;2932;52.400;9.558;2023-02-12T15:18:58;103181.59;;;11.48;77.77
5812;BME280;2932;52.400;9.558;2023-02-12T15:21:26;103181.34;;;11.06;78.42
5812;BME280;2932;52.400;9.558;2023-02-12T15:24:10;103169.94;;;11.12;78.90
5812;BME280;2932;52.400;9.558;2023-02-12T15:26:46;103174.75;;;10.96;79.42
5812;BME280;2932;52.400;9.558;2023-02-12T15:29:43;103170.81;;;11.08;79.66
5812;BME280;2932;52.400;9.558;2023-02-12T15:32:17;103172.44;;;11.14;78.67
5812;BME280;2932;52.400;9.558;2023-02-12T15:34:47;103175.19;;;11.14;78.83
5812;BME280;2932;52.400;9.558;2023-02-12T15:37:21;103174.63;;;11.17;78.57
5812;BME280;2932;52.400;9.558;2023-02-12T15:39:47;103181.56;;;11.14;78.75
5812;BME280;2932;52.400;9.558;2023-02-12T15:42:35;103178.22;;;11.17;78.30
5812;BME280;2932;52.400;9.558;2023-02-12T15:47:32;103183.50;;;11.19;77.99
5812;BME280;2932;52.400;9.558;2023-02-12T15:49:59;103186.97;;;10.90;79.01